sensor_id;sensor_type;location;lat;lon;timestamp;pressure;altitude;pressure_sealevel;temperature;humidity
44044;BME280;29709;52.396;16.796;2023-01-25T00:01:40;103876.24;;;3.18;78.40
44044;BME280;29709;52.396;16.796;2023-01-25T00:04:43;103881.55;;;3.23;78.67
44044;BME280;29709;52.396;16.796;2023-01-25T00:08:12;103884.35;;;3.20;78.81
44044;BME280;29709;52.396;16.796;2023-01-25T00:11:15;103880.95;;;3.13;79.15
44044;BME280;29709;52.396;16.796;2023-01-25T00:14:21;103880.06;;;3.11;79.13
44044;BME280;29709;52.396;16.796;2023-01-25T00:17:25;103883.61;;;3.15;79.08
44044;BME280;29709;52.396;16.796;2023-01-25T00:20:28;103889.11;;;3.12;79.46
44044;BME280;29709;52.396;16.796;2023-01-25T00:23:33;103887.20;;;3.15;79.40
44044;BME280;29709;52.396;16.796;2023-01-25T00:26:38;103879.12;;;3.14;79.52
44044;BME280;29709;52.396;16.796;2023-01-25T00:29:41;103892.65;;;3.15;79.53
44044;BME280;29709;52.396;16.796;2023-01-25T00:32:57;103887.00;;;3.23;79.38
44044;BME280;29709;52.396;16.796;2023-01-25T00:36:39;103890.63;;;3.22;79.62
44044;BME280;29709;52.396;16.796;2023-01-25T00:39:43;103890.55;;;3.25;79.55
44044;BME280;29709;52.396;16.796;2023-01-25T00:42:46;103888.67;;;3.27;79.41
44044;BME280;29709;52.396;16.796;2023-01-25T00:45:50;103896.88;;;3.26;79.08
44044;BME280;29709;52.396;16.796;2023-01-25T00:48:53;103893.27;;;3.25;79.37
44044;BME280;29709;52.396;16.796;2023-01-25T00:51:57;103892.38;;;3.25;79.35
44044;BME280;29709;52.396;16.796;2023-01-25T00:55:00;103890.55;;;3.25;79.51
44044;BME280;29709;52.396;16.796;2023-01-25T00:58:03;103901.55;;;3.21;79.30
44044;BME280;29709;52.396;16.796;2023-01-25T01:01:33;103897.14;;;3.16;79.76
44044;BME280;29709;52.396;16.796;2023-01-25T01:04:37;103891.81;;;3.13;79.74
44044;BME280;29709;52.396;16.796;2023-01-25T01:07:40;103891.23;;;3.02;79.22
44044;BME280;29709;52.396;16.796;2023-01-25T01:10:43;103890.76;;;2.86;79.91
44044;BME280;29709;52.396;16.796;2023-01-25T01:13:46;103885.59;;;2.77;81.07
44044;BME280;29709;52.396;16.796;2023-01-25T01:16:49;103886.26;;;2.85;81.33
44044;BME280;29709;52.396;16.796;2023-01-25T01:19:53;103888.77;;;2.93;80.95
44044;BME280;29709;52.396;16.796;2023-01-25T01:22:56;103883.29;;;2.95;80.92
44044;BME280;29709;52.396;16.796;2023-01-25T01:26:04;103881.57;;;2.90;80.74
44044;BME280;29709;52.396;16.796;2023-01-25T01:29:35;103882.96;;;2.74;80.75
44044;BME280;29709;52.396;16.796;2023-01-25T01:32:38;103882.36;;;2.63;81.71
44044;BME280;29709;52.396;16.796;2023-01-25T01:35:41;103877.82;;;2.64;81.56
44044;BME280;29709;52.396;16.796;2023-01-25T01:38:45;103884.98;;;2.66;81.90
44044;BME280;29709;52.396;16.796;2023-01-25T01:41:48;103873.28;;;2.64;81.42
44044;BME280;29709;52.396;16.796;2023-01-25T01:44:53;103880.49;;;2.65;81.92
44044;BME280;29709;52.396;16.796;2023-01-25T01:47:57;103873.09;;;2.70;82.10
44044;BME280;29709;52.396;16.796;2023-01-25T01:57:56;103865.30;;;2.58;81.44
44044;BME280;29709;52.396;16.796;2023-01-25T02:01:00;103866.27;;;2.55;82.28
44044;BME280;29709;52.396;16.796;2023-01-25T02:04:05;103856.25;;;2.57;82.31
44044;BME280;29709;52.396;16.796;2023-01-25T02:07:15;103854.43;;;2.58;82.64
44044;BME280;29709;52.396;16.796;2023-01-25T02:10:20;103851.66;;;2.59;82.19
44044;BME280;29709;52.396;16.796;2023-01-25T02:13:23;103852.50;;;2.63;82.24
44044;BME280;29709;52.396;16.796;2023-01-25T02:16:52;103849.84;;;2.60;81.94
44044;BME280;29709;52.396;16.796;2023-01-25T02:23:21;103843.81;;;2.49;81.96
44044;BME280;29709;52.396;16.796;2023-01-25T02:26:25;103838.48;;;2.46;82.65
44044;BME280;29709;52.396;16.796;2023-01-25T02:29:29;103835.62;;;2.52;82.36
44044;BME280;29709;52.396;16.796;2023-01-25T02:32:32;103833.48;;;2.63;83.06
44044;BME280;29709;52.396;16.796;2023-01-25T02:36:14;103838.66;;;2.72;82.52
44044;BME280;29709;52.396;16.796;2023-01-25T02:39:18;103832.97;;;2.81;82.39
44044;BME280;29709;52.396;16.796;2023-01-25T02:42:22;103837.32;;;2.87;81.88
44044;BME280;29709;52.396;16.796;2023-01-25T02:45:28;103819.20;;;2.87;81.65
44044;BME280;29709;52.396;16.796;2023-01-25T02:48:32;103824.57;;;2.89;81.97
44044;BME280;29709;52.396;16.796;2023-01-25T02:51:38;103810.92;;;2.92;81.82
44044;BME280;29709;52.396;16.796;2023-01-25T02:54:42;103813.65;;;2.92;81.91
44044;BME280;29709;52.396;16.796;2023-01-25T02:58:11;103812.15;;;2.80;81.88
44044;BME280;29709;52.396;16.796;2023-01-25T03:01:15;103805.82;;;2.80;81.82
44044;BME280;29709;52.396;16.796;2023-01-25T03:04:18;103805.82;;;2.80;81.77
44044;BME280;29709;52.396;16.796;2023-01-25T03:07:21;103792.13;;;2.84;81.80
44044;BME280;29709;52.396;16.796;2023-01-25T03:10:24;103794.62;;;2.92;81.53
44044;BME280;29709;52.396;16.796;2023-01-25T03:13:30;103784.50;;;2.97;81.24
44044;BME280;29709;52.396;16.796;2023-01-25T03:16:33;103773.63;;;2.97;81.13
44044;BME280;29709;52.396;16.796;2023-01-25T03:19:36;103778.03;;;3.01;81.27
44044;BME280;29709;52.396;16.796;2023-01-25T03:22:39;103768.09;;;3.00;81.22
44044;BME280;29709;52.396;16.796;2023-01-25T03:25:42;103768.19;;;2.97;80.80
44044;BME280;29709;52.396;16.796;2023-01-25T03:29:12;103768.42;;;2.89;81.02
44044;BME280;29709;52.396;16.796;2023-01-25T03:32:15;103762.09;;;2.89;80.71
44044;BME280;29709;52.396;16.796;2023-01-25T03:35:18;103759.33;;;2.90;80.45
44044;BME280;29709;52.396;16.796;2023-01-25T03:38:22;103764.87;;;2.87;80.47
44044;BME280;29709;52.396;16.796;2023-01-25T03:41:25;103753.95;;;2.89;80.92
44044;BME280;29709;52.396;16.796;2023-01-25T03:44:28;103754.71;;;2.94;80.94
44044;BME280;29709;52.396;16.796;2023-01-25T03:47:32;103747.52;;;2.92;80.48
44044;BME280;29709;52.396;16.796;2023-01-25T03:50:35;103741.31;;;2.88;80.84
44044;BME280;29709;52.396;16.796;2023-01-25T03:53:41;103739.69;;;2.82;81.24
44044;BME280;29709;52.396;16.796;2023-01-25T03:57:14;103735.20;;;2.81;81.07
44044;BME280;29709;52.396;16.796;2023-01-25T04:00:18;103731.43;;;2.85;80.84
44044;BME280;29709;52.396;16.796;2023-01-25T04:03:22;103728.66;;;2.87;81.08
44044;BME280;29709;52.396;16.796;2023-01-25T04:06:26;103725.99;;;2.85;80.92
44044;BME280;29709;52.396;16.796;2023-01-25T04:09:30;103723.28;;;2.85;81.25
44044;BME280;29709;52.396;16.796;2023-01-25T04:12:33;103726.88;;;2.86;81.51
44044;BME280;29709;52.396;16.796;2023-01-25T04:15:36;103717.86;;;2.85;81.61
44044;BME280;29709;52.396;16.796;2023-01-25T04:18:39;103720.66;;;2.82;81.41
44044;BME280;29709;52.396;16.796;2023-01-25T04:21:43;103715.26;;;2.81;81.37
44044;BME280;29709;52.396;16.796;2023-01-25T04:24:46;103716.20;;;2.80;81.44
44044;BME280;29709;52.396;16.796;2023-01-25T04:28:14;103710.81;;;2.78;81.17
44044;BME280;29709;52.396;16.796;2023-01-25T04:31:18;103706.60;;;2.68;80.80
44044;BME280;29709;52.396;16.796;2023-01-25T04:34:21;103696.68;;;2.67;80.84
44044;BME280;29709;52.396;16.796;2023-01-25T04:37:24;103693.13;;;2.65;80.91
44044;BME280;29709;52.396;16.796;2023-01-25T04:40:27;103683.05;;;2.69;81.36
44044;BME280;29709;52.396;16.796;2023-01-25T04:43:30;103680.27;;;2.70;81.14
44044;BME280;29709;52.396;16.796;2023-01-25T04:46:33;103681.27;;;2.68;81.34
44044;BME280;29709;52.396;16.796;2023-01-25T04:49:37;103684.03;;;2.66;81.22
44044;BME280;29709;52.396;16.796;2023-01-25T04:52:40;103678.55;;;2.68;81.25
44044;BME280;29709;52.396;16.796;2023-01-25T04:55:45;103681.27;;;2.68;81.26
44044;BME280;29709;52.396;16.796;2023-01-25T04:59:17;103684.14;;;2.63;81.21
44044;BME280;29709;52.396;16.796;2023-01-25T05:02:20;103681.43;;;2.63;81.27
44044;BME280;29709;52.396;16.796;2023-01-25T05:05:24;103671.35;;;2.67;81.33
44044;BME280;29709;52.396;16.796;2023-01-25T05:08:27;103677.56;;;2.70;81.15
44044;BME280;29709;52.396;16.796;2023-01-25T05:11:30;103675.56;;;2.77;81.13
44044;BME280;29709;52.396;16.796;2023-01-25T05:14:33;103680.05;;;2.78;80.40
44044;BME280;29709;52.396;16.796;2023-01-25T05:17:37;103664.52;;;2.83;80.39
44044;BME280;29709;52.396;16.796;2023-01-25T05:20:40;103659.98;;;2.83;80.41
44044;BME280;29709;52.396;16.796;2023-01-25T05:23:43;103657.98;;;2.88;80.75
44044;BME280;29709;52.396;16.796;2023-01-25T05:26:47;103659.86;;;2.86;80.33
44044;BME280;29709;52.396;16.796;2023-01-25T05:30:27;103658.98;;;2.86;80.32
44044;BME280;29709;52.396;16.796;2023-01-25T05:33:30;103652.55;;;2.88;79.96
44044;BME280;29709;52.396;16.796;2023-01-25T05:36:33;103654.38;;;2.88;80.04
44044;BME280;29709;52.396;16.796;2023-01-25T05:39:37;103649.78;;;2.90;79.92
44044;BME280;29709;52.396;16.796;2023-01-25T05:42:40;103648.90;;;2.89;79.88
44044;BME280;29709;52.396;16.796;2023-01-25T05:45:43;103647.18;;;2.87;80.21
44044;BME280;29709;52.396;16.796;2023-01-25T05:48:51;103648.06;;;2.87;79.94
44044;BME280;29709;52.396;16.796;2023-01-25T05:51:55;103643.45;;;2.89;80.64
44044;BME280;29709;52.396;16.796;2023-01-25T05:54:58;103646.94;;;2.95;80.10
44044;BME280;29709;52.396;16.796;2023-01-25T05:58:28;103648.84;;;2.91;80.07
44044;BME280;29709;52.396;16.796;2023-01-25T06:01:32;103645.10;;;2.95;80.25
44044;BME280;29709;52.396;16.796;2023-01-25T06:04:35;103647.83;;;2.95;79.96
44044;BME280;29709;52.396;16.796;2023-01-25T06:07:38;103647.18;;;2.87;79.93
44044;BME280;29709;52.396;16.796;2023-01-25T06:10:42;103652.60;;;2.87;80.19
44044;BME280;29709;52.396;16.796;2023-01-25T06:13:46;103644.85;;;2.75;79.87
44044;BME280;29709;52.396;16.796;2023-01-25T06:16:50;103642.20;;;2.73;80.24
44044;BME280;29709;52.396;16.796;2023-01-25T06:19:53;103638.63;;;2.71;80.20
44044;BME280;29709;52.396;16.796;2023-01-25T06:22:56;103640.49;;;2.69;80.21
44044;BME280;29709;52.396;16.796;2023-01-25T06:26:03;103643.02;;;2.75;80.07
44044;BME280;29709;52.396;16.796;2023-01-25T06:29:32;103644.96;;;2.72;79.58
44044;BME280;29709;52.396;16.796;2023-01-25T06:32:35;103633.23;;;2.70;80.09
44044;BME280;29709;52.396;16.796;2023-01-25T06:35:38;103635.16;;;2.66;80.26
44044;BME280;29709;52.396;16.796;2023-01-25T06:38:42;103645.08;;;2.67;80.35
44044;BME280;29709;52.396;16.796;2023-01-25T06:41:46;103633.34;;;2.67;80.24
44044;BME280;29709;52.396;16.796;2023-01-25T06:44:50;103636.94;;;2.67;80.16
44044;BME280;29709;52.396;16.796;2023-01-25T06:47:53;103635.95;;;2.70;79.78
44044;BME280;29709;52.396;16.796;2023-01-25T06:51:04;103635.87;;;2.73;79.45
44044;BME280;29709;52.396;16.796;2023-01-25T06:54:36;103635.95;;;2.70;79.82
44044;BME280;29709;52.396;16.796;2023-01-25T06:57:39;103634.33;;;2.64;79.61
44044;BME280;29709;52.396;16.796;2023-01-25T07:00:42;103637.94;;;2.65;79.83
44044;BME280;29709;52.396;16.796;2023-01-25T07:03:49;103633.23;;;2.70;79.80
44044;BME280;29709;52.396;16.796;2023-01-25T07:06:53;103629.63;;;2.69;79.58
44044;BME280;29709;52.396;16.796;2023-01-25T07:09:56;103630.62;;;2.67;79.31
44044;BME280;29709;52.396;16.796;2023-01-25T07:13:03;103628.84;;;2.66;79.52
44044;BME280;29709;52.396;16.796;2023-01-25T07:16:09;103623.31;;;2.69;79.35
44044;BME280;29709;52.396;16.796;2023-01-25T07:19:13;103617.81;;;2.72;79.45
44044;BME280;29709;52.396;16.796;2023-01-25T07:22:42;103618.58;;;2.75;79.62
44044;BME280;29709;52.396;16.796;2023-01-25T07:25:46;103615.82;;;2.77;79.54
44044;BME280;29709;52.396;16.796;2023-01-25T07:28:51;103611.20;;;2.79;79.35
44044;BME280;29709;52.396;16.796;2023-01-25T07:31:55;103615.87;;;2.75;79.25
44044;BME280;29709;52.396;16.796;2023-01-25T07:34:58;103627.66;;;2.74;79.69
44044;BME280;29709;52.396;16.796;2023-01-25T07:38:01;103612.96;;;2.81;78.95
44044;BME280;29709;52.396;16.796;2023-01-25T07:41:05;103611.85;;;2.87;79.41
44044;BME280;29709;52.396;16.796;2023-01-25T07:44:09;103611.85;;;2.87;79.50
44044;BME280;29709;52.396;16.796;2023-01-25T07:47:12;103605.54;;;2.86;79.39
44044;BME280;29709;52.396;16.796;2023-01-25T07:50:43;103598.17;;;2.90;79.55
44044;BME280;29709;52.396;16.796;2023-01-25T07:54:03;103602.77;;;2.88;79.25
44044;BME280;29709;52.396;16.796;2023-01-25T07:57:06;103594.57;;;2.89;79.26
44044;BME280;29709;52.396;16.796;2023-01-25T08:00:10;103588.05;;;2.95;79.65
44044;BME280;29709;52.396;16.796;2023-01-25T08:03:15;103574.24;;;3.01;79.39
44044;BME280;29709;52.396;16.796;2023-01-25T08:06:23;103574.59;;;2.92;78.83
44044;BME280;29709;52.396;16.796;2023-01-25T08:09:58;103583.16;;;2.78;79.39
44044;BME280;29709;52.396;16.796;2023-01-25T08:13:02;103568.66;;;2.79;79.38
44044;BME280;29709;52.396;16.796;2023-01-25T08:16:05;103569.75;;;2.74;79.51
44044;BME280;29709;52.396;16.796;2023-01-25T08:19:09;103573.53;;;2.68;79.03
44044;BME280;29709;52.396;16.796;2023-01-25T08:22:13;103575.37;;;2.68;79.45
44044;BME280;29709;52.396;16.796;2023-01-25T08:25:16;103567.98;;;2.73;79.18
44044;BME280;29709;52.396;16.796;2023-01-25T08:28:19;103571.36;;;2.79;79.27
44044;BME280;29709;52.396;16.796;2023-01-25T08:31:29;103563.21;;;2.79;79.61
44044;BME280;29709;52.396;16.796;2023-01-25T08:34:33;103560.78;;;2.72;79.19
44044;BME280;29709;52.396;16.796;2023-01-25T08:38:02;103562.02;;;2.62;79.35
44044;BME280;29709;52.396;16.796;2023-01-25T08:41:10;103554.88;;;2.57;79.50
44044;BME280;29709;52.396;16.796;2023-01-25T08:44:14;103556.88;;;2.52;79.69
44044;BME280;29709;52.396;16.796;2023-01-25T08:47:17;103555.10;;;2.51;79.75
44044;BME280;29709;52.396;16.796;2023-01-25T08:50:20;103550.63;;;2.49;79.87
44044;BME280;29709;52.396;16.796;2023-01-25T08:53:26;103546.85;;;2.54;80.63
44044;BME280;29709;52.396;16.796;2023-01-25T08:56:30;103543.90;;;2.62;80.23
44044;BME280;29709;52.396;16.796;2023-01-25T08:59:33;103536.28;;;2.73;80.00
44044;BME280;29709;52.396;16.796;2023-01-25T09:02:36;103532.45;;;2.79;79.84
44044;BME280;29709;52.396;16.796;2023-01-25T09:06:06;103531.37;;;2.84;80.03
44044;BME280;29709;52.396;16.796;2023-01-25T09:09:11;103522.17;;;2.88;80.12
44044;BME280;29709;52.396;16.796;2023-01-25T09:12:14;103523.06;;;2.89;79.86
44044;BME280;29709;52.396;16.796;2023-01-25T09:15:18;103523.22;;;2.84;79.96
44044;BME280;29709;52.396;16.796;2023-01-25T09:18:21;103529.43;;;2.88;80.21
44044;BME280;29709;52.396;16.796;2023-01-25T09:21:24;103523.87;;;2.93;79.66
44044;BME280;29709;52.396;16.796;2023-01-25T09:24:28;103516.73;;;2.88;79.24
44044;BME280;29709;52.396;16.796;2023-01-25T09:27:31;103524.22;;;2.82;79.57
44044;BME280;29709;52.396;16.796;2023-01-25T09:30:34;103521.52;;;2.80;79.83
44044;BME280;29709;52.396;16.796;2023-01-25T09:34:09;103517.84;;;2.83;79.45
44044;BME280;29709;52.396;16.796;2023-01-25T09:37:13;103521.59;;;2.79;79.51
44044;BME280;29709;52.396;16.796;2023-01-25T09:40:22;103507.18;;;2.77;79.56
44044;BME280;29709;52.396;16.796;2023-01-25T09:46:52;103503.05;;;2.65;79.46
44044;BME280;29709;52.396;16.796;2023-01-25T09:53:46;103510.37;;;2.63;79.84
44044;BME280;29709;52.396;16.796;2023-01-25T09:56:51;103496.92;;;2.58;79.85
44044;BME280;29709;52.396;16.796;2023-01-25T09:59:55;103490.36;;;2.66;79.71
44044;BME280;29709;52.396;16.796;2023-01-25T10:06:40;103491.99;;;2.71;79.97
44044;BME280;29709;52.396;16.796;2023-01-25T10:09:51;103482.68;;;2.78;80.31
44044;BME280;29709;52.396;16.796;2023-01-25T10:12:57;103474.22;;;2.87;79.77
44044;BME280;29709;52.396;16.796;2023-01-25T10:16:08;103470.30;;;2.96;79.61
44044;BME280;29709;52.396;16.796;2023-01-25T10:29:28;103451.60;;;2.87;79.27
44044;BME280;29709;52.396;16.796;2023-01-25T10:32:33;103454.49;;;2.82;79.50
44044;BME280;29709;52.396;16.796;2023-01-25T10:35:37;103448.70;;;2.92;79.42
44044;BME280;29709;52.396;16.796;2023-01-25T10:39:10;103458.48;;;2.97;79.67
44044;BME280;29709;52.396;16.796;2023-01-25T10:42:15;103451.10;;;3.01;79.34
44044;BME280;29709;52.396;16.796;2023-01-25T10:45:19;103439.66;;;2.91;78.71
44044;BME280;29709;52.396;16.796;2023-01-25T10:48:26;103440.63;;;2.90;79.12
44044;BME280;29709;52.396;16.796;2023-01-25T10:51:32;103437.02;;;2.89;78.95
44044;BME280;29709;52.396;16.796;2023-01-25T10:54:37;103433.27;;;2.94;79.08
44044;BME280;29709;52.396;16.796;2023-01-25T10:57:49;103440.23;;;3.01;78.79
44044;BME280;29709;52.396;16.796;2023-01-25T11:01:28;103431.20;;;3.00;79.02
44044;BME280;29709;52.396;16.796;2023-01-25T11:04:34;103424.05;;;2.98;78.65
44044;BME280;29709;52.396;16.796;2023-01-25T11:07:38;103411.24;;;3.01;79.08
44044;BME280;29709;52.396;16.796;2023-01-25T11:10:42;103403.09;;;3.01;78.85
44044;BME280;29709;52.396;16.796;2023-01-25T11:13:47;103386.96;;;2.97;79.26
44044;BME280;29709;52.396;16.796;2023-01-25T11:16:50;103389.47;;;3.03;79.29
44044;BME280;29709;52.396;16.796;2023-01-25T11:23:34;103376.71;;;3.05;79.43
44044;BME280;29709;52.396;16.796;2023-01-25T11:26:39;103382.91;;;3.08;79.16
44044;BME280;29709;52.396;16.796;2023-01-25T11:29:43;103370.40;;;3.04;78.96
44044;BME280;29709;52.396;16.796;2023-01-25T11:32:48;103366.86;;;3.02;78.68
44044;BME280;29709;52.396;16.796;2023-01-25T11:42:32;103354.58;;;3.15;79.09
44044;BME280;29709;52.396;16.796;2023-01-25T11:45:45;103349.07;;;3.17;78.89
44044;BME280;29709;52.396;16.796;2023-01-25T11:55:26;103330.21;;;3.12;78.90
44044;BME280;29709;52.396;16.796;2023-01-25T12:34:37;103248.30;;;3.23;78.44
44044;BME280;29709;52.396;16.796;2023-01-25T12:37:42;103247.70;;;3.15;78.75
44044;BME280;29709;52.396;16.796;2023-01-25T12:40:54;103243.92;;;3.19;78.78
44044;BME280;29709;52.396;16.796;2023-01-25T12:50:40;103224.30;;;3.11;78.60
44044;BME280;29709;52.396;16.796;2023-01-25T12:53:45;103222.53;;;3.10;78.82
44044;BME280;29709;52.396;16.796;2023-01-25T13:00:46;103206.73;;;2.98;78.85
44044;BME280;29709;52.396;16.796;2023-01-25T13:10:25;103191.02;;;3.06;79.46
44044;BME280;29709;52.396;16.796;2023-01-25T13:13:32;103191.59;;;3.14;79.32
44044;BME280;29709;52.396;16.796;2023-01-25T13:23:39;103185.67;;;3.26;79.09
44044;BME280;29709;52.396;16.796;2023-01-25T13:26:58;103181.27;;;3.22;78.70
44044;BME280;29709;52.396;16.796;2023-01-25T13:33:38;103172.45;;;3.17;78.98
44044;BME280;29709;52.396;16.796;2023-01-25T13:36:43;103164.28;;;3.17;79.72
44044;BME280;29709;52.396;16.796;2023-01-25T13:39:51;103154.17;;;3.21;79.05
44044;BME280;29709;52.396;16.796;2023-01-25T13:43:03;103158.79;;;3.18;79.10
44044;BME280;29709;52.396;16.796;2023-01-25T13:46:11;103146.90;;;3.21;79.18
44044;BME280;29709;52.396;16.796;2023-01-25T13:51:53;103133.72;;;3.34;79.07
44044;BME280;29709;52.396;16.796;2023-01-25T13:54:58;103132.62;;;3.38;79.09
44044;BME280;29709;52.396;16.796;2023-01-25T13:58:09;103124.48;;;3.38;79.07
44044;BME280;29709;52.396;16.796;2023-01-25T14:01:15;103129.09;;;3.36;78.74
44044;BME280;29709;52.396;16.796;2023-01-25T14:04:19;103129.09;;;3.36;78.81
44044;BME280;29709;52.396;16.796;2023-01-25T14:07:30;103130.06;;;3.33;78.66
44044;BME280;29709;52.396;16.796;2023-01-25T14:10:35;103122.20;;;3.27;78.89
44044;BME280;29709;52.396;16.796;2023-01-25T14:17:21;103110.90;;;3.16;79.21
44044;BME280;29709;52.396;16.796;2023-01-25T14:20:25;103120.07;;;3.13;78.74
44044;BME280;29709;52.396;16.796;2023-01-25T14:23:29;103112.02;;;3.10;79.38
44044;BME280;29709;52.396;16.796;2023-01-25T14:26:37;103098.50;;;3.09;79.15
44044;BME280;29709;52.396;16.796;2023-01-25T14:29:47;103087.71;;;3.07;79.44
44044;BME280;29709;52.396;16.796;2023-01-25T14:32:53;103083.02;;;3.11;79.27
44044;BME280;29709;52.396;16.796;2023-01-25T14:36:07;103089.48;;;3.08;79.55
44044;BME280;29709;52.396;16.796;2023-01-25T14:39:22;103082.03;;;3.13;79.57
44044;BME280;29709;52.396;16.796;2023-01-25T14:42:27;103072.85;;;3.16;79.50
44044;BME280;29709;52.396;16.796;2023-01-25T14:45:56;103077.59;;;3.11;79.97
44044;BME280;29709;52.396;16.796;2023-01-25T14:49:06;103068.45;;;3.13;79.57
44044;BME280;29709;52.396;16.796;2023-01-25T14:52:13;103062.80;;;3.18;79.77
44044;BME280;29709;52.396;16.796;2023-01-25T14:55:20;103053.30;;;3.28;79.66
44044;BME280;29709;52.396;16.796;2023-01-25T14:58:24;103048.68;;;3.30;79.66
44044;BME280;29709;52.396;16.796;2023-01-25T15:01:39;103058.35;;;3.37;79.19
44044;BME280;29709;52.396;16.796;2023-01-25T15:11:28;103033.55;;;3.45;79.12
44044;BME280;29709;52.396;16.796;2023-01-25T15:14:47;103033.58;;;3.43;78.95
44044;BME280;29709;52.396;16.796;2023-01-25T15:17:51;103024.62;;;3.41;78.96
44044;BME280;29709;52.396;16.796;2023-01-25T15:21:28;103021.16;;;3.38;79.35
44044;BME280;29709;52.396;16.796;2023-01-25T15:24:32;103022.39;;;3.31;78.91
44044;BME280;29709;52.396;16.796;2023-01-25T15:27:35;103017.23;;;3.25;79.32
44044;BME280;29709;52.396;16.796;2023-01-25T15:30:42;103018.93;;;3.27;79.68
44044;BME280;29709;52.396;16.796;2023-01-25T15:33:45;103014.04;;;3.35;79.47
44044;BME280;29709;52.396;16.796;2023-01-25T15:36:48;103015.00;;;3.34;79.33
44044;BME280;29709;52.396;16.796;2023-01-25T15:39:52;103014.23;;;3.31;79.50
44044;BME280;29709;52.396;16.796;2023-01-25T15:42:55;103003.65;;;3.25;79.31
44044;BME280;29709;52.396;16.796;2023-01-25T15:46:27;103009.59;;;3.12;79.61
44044;BME280;29709;52.396;16.796;2023-01-25T15:49:33;103002.47;;;3.10;79.83
44044;BME280;29709;52.396;16.796;2023-01-25T15:52:41;102991.67;;;3.08;79.87
44044;BME280;29709;52.396;16.796;2023-01-25T15:55:47;102992.48;;;3.10;79.85
44044;BME280;29709;52.396;16.796;2023-01-25T15:58:57;102986.17;;;3.10;80.02
44044;BME280;29709;52.396;16.796;2023-01-25T16:02:01;102984.14;;;3.15;79.92
44044;BME280;29709;52.396;16.796;2023-01-25T16:05:05;102975.11;;;3.14;79.72
44044;BME280;29709;52.396;16.796;2023-01-25T16:08:34;102978.81;;;3.12;80.15
44044;BME280;29709;52.396;16.796;2023-01-25T16:11:38;102971.51;;;3.14;80.56
44044;BME280;29709;52.396;16.796;2023-01-25T16:14:41;102967.77;;;3.16;80.30
44044;BME280;29709;52.396;16.796;2023-01-25T16:17:44;102966.42;;;3.27;79.83
44044;BME280;29709;52.396;16.796;2023-01-25T16:20:47;102961.05;;;3.25;79.67
44044;BME280;29709;52.396;16.796;2023-01-25T16:23:51;102963.84;;;3.24;79.60
44044;BME280;29709;52.396;16.796;2023-01-25T16:26:56;102953.89;;;3.23;80.15
44044;BME280;29709;52.396;16.796;2023-01-25T16:29:59;102957.38;;;3.26;79.92
44044;BME280;29709;52.396;16.796;2023-01-25T16:33:03;102958.11;;;3.30;79.87
44044;BME280;29709;52.396;16.796;2023-01-25T16:36:16;102950.57;;;3.36;79.91
44044;BME280;29709;52.396;16.796;2023-01-25T16:39:45;102948.74;;;3.37;79.61
44044;BME280;29709;52.396;16.796;2023-01-25T16:42:49;102937.06;;;3.35;79.90
44044;BME280;29709;52.396;16.796;2023-01-25T16:45:58;102943.23;;;3.38;79.55
44044;BME280;29709;52.396;16.796;2023-01-25T16:49:02;102934.34;;;3.35;80.10
44044;BME280;29709;52.396;16.796;2023-01-25T16:52:11;102934.85;;;3.43;79.97
44044;BME280;29709;52.396;16.796;2023-01-25T16:55:15;102942.20;;;3.41;79.67
44044;BME280;29709;52.396;16.796;2023-01-25T16:58:18;102937.52;;;3.44;79.80
44044;BME280;29709;52.396;16.796;2023-01-25T17:01:23;102932.44;;;3.37;79.82
44044;BME280;29709;52.396;16.796;2023-01-25T17:04:52;102934.45;;;3.32;79.90
44044;BME280;29709;52.396;16.796;2023-01-25T17:07:56;102931.73;;;3.32;79.74
44044;BME280;29709;52.396;16.796;2023-01-25T17:11:06;102923.48;;;3.35;79.89
44044;BME280;29709;52.396;16.796;2023-01-25T17:14:13;102923.48;;;3.35;79.83
44044;BME280;29709;52.396;16.796;2023-01-25T17:17:17;102914.37;;;3.36;80.14
44044;BME280;29709;52.396;16.796;2023-01-25T17:20:22;102907.16;;;3.35;79.65
44044;BME280;29709;52.396;16.796;2023-01-25T17:23:26;102906.81;;;3.22;80.18
44044;BME280;29709;52.396;16.796;2023-01-25T17:26:31;102898.34;;;3.09;79.96
44044;BME280;29709;52.396;16.796;2023-01-25T17:30:00;102897.94;;;2.98;80.44
44044;BME280;29709;52.396;16.796;2023-01-25T17:33:03;102889.63;;;3.01;80.68
44044;BME280;29709;52.396;16.796;2023-01-25T17:36:06;102889.93;;;2.95;80.84
44044;BME280;29709;52.396;16.796;2023-01-25T17:39:12;102891.30;;;3.05;81.38
44044;BME280;29709;52.396;16.796;2023-01-25T17:42:19;102886.26;;;3.16;81.10
44044;BME280;29709;52.396;16.796;2023-01-25T17:45:25;102883.24;;;3.23;80.61
44044;BME280;29709;52.396;16.796;2023-01-25T17:48:28;102873.13;;;3.26;80.62
44044;BME280;29709;52.396;16.796;2023-01-25T17:51:32;102872.36;;;3.23;80.38
44044;BME280;29709;52.396;16.796;2023-01-25T17:55:05;102873.48;;;3.18;80.65
44044;BME280;29709;52.396;16.796;2023-01-25T17:58:08;102861.87;;;3.15;80.61
44044;BME280;29709;52.396;16.796;2023-01-25T18:01:23;102858.94;;;3.19;80.85
44044;BME280;29709;52.396;16.796;2023-01-25T18:04:26;102856.02;;;3.24;80.83
44044;BME280;29709;52.396;16.796;2023-01-25T18:07:29;102862.84;;;3.33;81.22
44044;BME280;29709;52.396;16.796;2023-01-25T18:10:33;102852.38;;;3.44;80.78
44044;BME280;29709;52.396;16.796;2023-01-25T18:13:43;102848.48;;;3.50;80.37
44044;BME280;29709;52.396;16.796;2023-01-25T18:17:13;102855.90;;;3.46;80.38
44044;BME280;29709;52.396;16.796;2023-01-25T18:20:16;102861.41;;;3.44;80.52
44044;BME280;29709;52.396;16.796;2023-01-25T18:23:21;102852.95;;;3.51;80.33
44044;BME280;29709;52.396;16.796;2023-01-25T18:26:27;102852.75;;;3.55;80.06